ENTO/TRF METAR and TAF weather

Enter ICAO airport designator
Station Type Date Time Source
ENTO METAR 2022/01/26 21:20 UTC NOAA

ENTO 262120Z AUTO 22016KT 9999 FEW100/// OVC130/// 05/00 Q1004


Station Type Date Time Source
ENTO Decoded METAR 2022/01/26 21:20 UTC NOAA

Torp, Norway (ENTO) 59-12N 010-16E 88M
Jan 26, 2022 - 04:20 PM EST / 2022.01.26 2120 UTC
Wind: from the SW (220 degrees) at 18 MPH (16 KT):0
Visibility: greater than 7 mile(s):0
Sky conditions: overcast
Temperature: 41 F (5 C)
Dew Point: 32 F (0 C)
Relative Humidity: 70%
Pressure (altimeter): 29.65 in. Hg (1004 hPa)
ob: ENTO 262120Z AUTO 22016KT 9999 FEW100/// OVC130/// 05/00 Q1004
cycle: 21

Station Type Date Time Source
ENTO TAF 2022/01/26 18:57 UTC NOAA

TAF ENTO 261700Z 2618/2718 23012KT CAVOK PROB40 2621/2706 20015G25KT
BECMG 2623/2701 BKN008
TEMPO 2700/2706 1500 -DZ BR BKN003
BECMG 2705/2707 FEW008
BECMG 2710/2712 35015KT

Example: see airport list